sensor_id;sensor_type;location;lat;lon;timestamp;pressure;altitude;pressure_sealevel;temperature;humidity
70976;BME280;58635;51.198;6.010;2023-08-08T00:00:51;101359.03;;;18.72;54.57
70976;BME280;58635;51.198;6.010;2023-08-08T00:03:17;101353.69;;;18.66;54.89
70976;BME280;58635;51.198;6.010;2023-08-08T00:05:43;101354.47;;;18.67;54.98
70976;BME280;58635;51.198;6.010;2023-08-08T00:08:10;101355.50;;;18.66;54.81
70976;BME280;58635;51.198;6.010;2023-08-08T00:10:36;101342.66;;;18.64;54.75
70976;BME280;58635;51.198;6.010;2023-08-08T00:13:02;101344.47;;;18.64;55.16
70976;BME280;58635;51.198;6.010;2023-08-08T00:15:29;101345.47;;;18.63;54.89
70976;BME280;58635;51.198;6.010;2023-08-08T00:17:56;101342.28;;;18.61;54.94
70976;BME280;58635;51.198;6.010;2023-08-08T00:20:22;101338.28;;;18.58;55.03
70976;BME280;58635;51.198;6.010;2023-08-08T00:22:48;101339.78;;;18.54;54.81
70976;BME280;58635;51.198;6.010;2023-08-08T00:25:18;101336.13;;;18.55;55.08
70976;BME280;58635;51.198;6.010;2023-08-08T00:27:44;101336.84;;;18.51;54.96
70976;BME280;58635;51.198;6.010;2023-08-08T00:30:11;101340.72;;;18.48;55.17
70976;BME280;58635;51.198;6.010;2023-08-08T00:32:39;101333.78;;;18.42;55.36
70976;BME280;58635;51.198;6.010;2023-08-08T00:35:06;101333.47;;;18.38;55.27
70976;BME280;58635;51.198;6.010;2023-08-08T00:37:32;101333.34;;;18.33;55.33
70976;BME280;58635;51.198;6.010;2023-08-08T00:39:59;101342.00;;;18.34;55.54
70976;BME280;58635;51.198;6.010;2023-08-08T00:42:25;101330.63;;;18.28;55.94
70976;BME280;58635;51.198;6.010;2023-08-08T00:44:52;101342.13;;;18.27;55.86
70976;BME280;58635;51.198;6.010;2023-08-08T00:47:18;101335.97;;;18.22;55.90
70976;BME280;58635;51.198;6.010;2023-08-08T00:49:45;101337.47;;;18.18;55.80
70976;BME280;58635;51.198;6.010;2023-08-08T00:52:14;101337.47;;;18.18;55.83
70976;BME280;58635;51.198;6.010;2023-08-08T00:54:41;101341.69;;;18.19;55.98
70976;BME280;58635;51.198;6.010;2023-08-08T00:57:07;101345.00;;;18.14;56.25
70976;BME280;58635;51.198;6.010;2023-08-08T00:59:34;101343.28;;;18.08;56.35
70976;BME280;58635;51.198;6.010;2023-08-08T01:02:00;101339.88;;;18.07;56.63
70976;BME280;58635;51.198;6.010;2023-08-08T01:04:27;101343.28;;;18.08;56.63
70976;BME280;58635;51.198;6.010;2023-08-08T01:09:55;101345.25;;;18.01;56.35
70976;BME280;58635;51.198;6.010;2023-08-08T01:12:24;101335.22;;;17.98;56.51
70976;BME280;58635;51.198;6.010;2023-08-08T01:14:51;101331.56;;;17.99;56.78
70976;BME280;58635;51.198;6.010;2023-08-08T01:17:18;101327.94;;;18.00;56.62
70976;BME280;58635;51.198;6.010;2023-08-08T01:19:45;101326.94;;;18.01;56.35
70976;BME280;58635;51.198;6.010;2023-08-08T01:22:19;101324.75;;;17.98;56.56
70976;BME280;58635;51.198;6.010;2023-08-08T01:24:48;101318.38;;;17.94;56.61
70976;BME280;58635;51.198;6.010;2023-08-08T01:27:15;101318.63;;;17.92;56.72
70976;BME280;58635;51.198;6.010;2023-08-08T01:29:41;101318.63;;;17.92;56.99
70976;BME280;58635;51.198;6.010;2023-08-08T01:32:08;101323.06;;;17.92;56.88
70976;BME280;58635;51.198;6.010;2023-08-08T01:34:35;101326.25;;;17.94;56.86
70976;BME280;58635;51.198;6.010;2023-08-08T01:37:41;101317.81;;;17.92;57.05
70976;BME280;58635;51.198;6.010;2023-08-08T01:40:12;101322.25;;;17.91;57.07
70976;BME280;58635;51.198;6.010;2023-08-08T01:42:40;101318.63;;;17.92;57.02
70976;BME280;58635;51.198;6.010;2023-08-08T01:45:08;101325.66;;;17.92;57.16
70976;BME280;58635;51.198;6.010;2023-08-08T01:47:35;101317.25;;;17.90;57.03
70976;BME280;58635;51.198;6.010;2023-08-08T01:50:01;101317.25;;;17.90;56.98
70976;BME280;58635;51.198;6.010;2023-08-08T01:52:29;101315.66;;;17.89;57.27
70976;BME280;58635;51.198;6.010;2023-08-08T01:54:55;101321.91;;;17.88;57.38
70976;BME280;58635;51.198;6.010;2023-08-08T01:57:21;101320.53;;;17.85;57.22
70976;BME280;58635;51.198;6.010;2023-08-08T01:59:48;101314.97;;;17.81;57.08
70976;BME280;58635;51.198;6.010;2023-08-08T02:02:16;101312.81;;;17.78;57.61
70976;BME280;58635;51.198;6.010;2023-08-08T02:04:43;101312.25;;;17.76;57.69
70976;BME280;58635;51.198;6.010;2023-08-08T02:07:10;101317.50;;;17.76;57.62
70976;BME280;58635;51.198;6.010;2023-08-08T02:09:36;101305.41;;;17.75;57.54
70976;BME280;58635;51.198;6.010;2023-08-08T02:12:03;101304.50;;;17.70;57.72
70976;BME280;58635;51.198;6.010;2023-08-08T02:14:29;101309.38;;;17.66;57.90
70976;BME280;58635;51.198;6.010;2023-08-08T02:16:55;101304.38;;;17.65;58.06
70976;BME280;58635;51.198;6.010;2023-08-08T02:19:22;101313.81;;;17.66;58.04
70976;BME280;58635;51.198;6.010;2023-08-08T02:21:48;101303.00;;;17.62;58.18
70976;BME280;58635;51.198;6.010;2023-08-08T02:24:15;101294.91;;;17.64;58.54
70976;BME280;58635;51.198;6.010;2023-08-08T02:26:41;101292.75;;;17.61;58.30
70976;BME280;58635;51.198;6.010;2023-08-08T02:29:07;101294.81;;;17.59;58.47
70976;BME280;58635;51.198;6.010;2023-08-08T02:31:34;101294.81;;;17.59;58.43
70976;BME280;58635;51.198;6.010;2023-08-08T02:34:00;101284.91;;;17.61;58.44
70976;BME280;58635;51.198;6.010;2023-08-08T02:36:26;101284.00;;;17.55;58.71
70976;BME280;58635;51.198;6.010;2023-08-08T02:38:53;101272.75;;;17.54;58.69
70976;BME280;58635;51.198;6.010;2023-08-08T02:41:20;101273.00;;;17.53;59.10
70976;BME280;58635;51.198;6.010;2023-08-08T02:43:46;101276.97;;;17.56;58.65
70976;BME280;58635;51.198;6.010;2023-08-08T02:46:13;101278.78;;;17.55;59.03
70976;BME280;58635;51.198;6.010;2023-08-08T02:48:39;101276.16;;;17.55;58.97
70976;BME280;58635;51.198;6.010;2023-08-08T02:51:06;101278.09;;;17.60;58.70
70976;BME280;58635;51.198;6.010;2023-08-08T02:53:32;101274.44;;;17.61;58.72
70976;BME280;58635;51.198;6.010;2023-08-08T02:55:58;101268.41;;;17.60;58.84
70976;BME280;58635;51.198;6.010;2023-08-08T02:58:25;101266.03;;;17.59;58.68
70976;BME280;58635;51.198;6.010;2023-08-08T03:00:51;101260.34;;;17.62;58.68
70976;BME280;58635;51.198;6.010;2023-08-08T03:03:18;101263.41;;;17.59;58.83
70976;BME280;58635;51.198;6.010;2023-08-08T03:05:45;101256.38;;;17.59;58.89
70976;BME280;58635;51.198;6.010;2023-08-08T03:08:12;101254.31;;;17.61;59.14
70976;BME280;58635;51.198;6.010;2023-08-08T03:10:38;101263.19;;;17.60;59.19
70976;BME280;58635;51.198;6.010;2023-08-08T03:13:05;101275.47;;;17.60;59.07
70976;BME280;58635;51.198;6.010;2023-08-08T03:15:31;101275.94;;;17.57;59.55
70976;BME280;58635;51.198;6.010;2023-08-08T03:17:57;101275.59;;;17.53;59.51
70976;BME280;58635;51.198;6.010;2023-08-08T03:20:24;101275.38;;;17.54;59.49
70976;BME280;58635;51.198;6.010;2023-08-08T03:22:50;101272.19;;;17.52;59.64
70976;BME280;58635;51.198;6.010;2023-08-08T03:25:16;101273.19;;;17.51;60.05
70976;BME280;58635;51.198;6.010;2023-08-08T03:27:43;101274.81;;;17.52;59.99
70976;BME280;58635;51.198;6.010;2023-08-08T03:30:10;101270.38;;;17.53;60.32
70976;BME280;58635;51.198;6.010;2023-08-08T03:32:36;101270.72;;;17.57;59.94
70976;BME280;58635;51.198;6.010;2023-08-08T03:35:03;101269.69;;;17.58;60.22
70976;BME280;58635;51.198;6.010;2023-08-08T03:37:30;101255.69;;;17.52;60.26
70976;BME280;58635;51.198;6.010;2023-08-08T03:39:56;101258.09;;;17.53;60.35
70976;BME280;58635;51.198;6.010;2023-08-08T03:42:23;101259.22;;;17.58;60.13
70976;BME280;58635;51.198;6.010;2023-08-08T03:44:49;101260.81;;;17.59;60.50
70976;BME280;58635;51.198;6.010;2023-08-08T03:47:15;101263.09;;;17.55;60.71
70976;BME280;58635;51.198;6.010;2023-08-08T03:49:42;101264.91;;;17.54;60.35
70976;BME280;58635;51.198;6.010;2023-08-08T03:52:08;101265.72;;;17.55;60.69
70976;BME280;58635;51.198;6.010;2023-08-08T03:54:34;101267.28;;;17.56;60.56
70976;BME280;58635;51.198;6.010;2023-08-08T03:57:01;101262.84;;;17.57;60.13
70976;BME280;58635;51.198;6.010;2023-08-08T03:59:27;101259.78;;;17.60;60.55
70976;BME280;58635;51.198;6.010;2023-08-08T04:01:54;101250.34;;;17.59;60.76
70976;BME280;58635;51.198;6.010;2023-08-08T04:04:20;101256.94;;;17.61;60.95
70976;BME280;58635;51.198;6.010;2023-08-08T04:06:46;101250.91;;;17.61;60.81
70976;BME280;58635;51.198;6.010;2023-08-08T04:09:12;101257.16;;;17.60;61.03
70976;BME280;58635;51.198;6.010;2023-08-08T04:11:39;101249.09;;;17.61;60.74
70976;BME280;58635;51.198;6.010;2023-08-08T04:14:05;101243.19;;;17.66;60.94
70976;BME280;58635;51.198;6.010;2023-08-08T04:16:32;101245.56;;;17.67;60.78
70976;BME280;58635;51.198;6.010;2023-08-08T04:18:58;101245.69;;;17.61;60.92
70976;BME280;58635;51.198;6.010;2023-08-08T04:21:25;101242.72;;;17.57;61.24
70976;BME280;58635;51.198;6.010;2023-08-08T04:23:54;101243.28;;;17.59;60.91
70976;BME280;58635;51.198;6.010;2023-08-08T04:26:21;101244.88;;;17.60;61.36
70976;BME280;58635;51.198;6.010;2023-08-08T04:28:47;101240.69;;;17.59;61.27
70976;BME280;58635;51.198;6.010;2023-08-08T04:31:14;101251.13;;;17.59;61.22
70976;BME280;58635;51.198;6.010;2023-08-08T04:33:40;101236.69;;;17.57;61.29
70976;BME280;58635;51.198;6.010;2023-08-08T04:36:06;101249.56;;;17.58;61.29
70976;BME280;58635;51.198;6.010;2023-08-08T04:38:33;101250.91;;;17.61;61.35
70976;BME280;58635;51.198;6.010;2023-08-08T04:40:59;101243.75;;;17.56;61.46
70976;BME280;58635;51.198;6.010;2023-08-08T04:43:26;101245.34;;;17.57;61.24
70976;BME280;58635;51.198;6.010;2023-08-08T04:45:54;101250.00;;;17.55;61.64
70976;BME280;58635;51.198;6.010;2023-08-08T04:48:20;101240.44;;;17.49;61.71
70976;BME280;58635;51.198;6.010;2023-08-08T04:50:47;101243.75;;;17.44;61.59
70976;BME280;58635;51.198;6.010;2023-08-08T04:53:13;101251.03;;;17.42;61.78
70976;BME280;58635;51.198;6.010;2023-08-08T04:55:40;101243.97;;;17.43;61.85
70976;BME280;58635;51.198;6.010;2023-08-08T04:58:06;101241.13;;;17.44;61.83
70976;BME280;58635;51.198;6.010;2023-08-08T05:00:32;101241.13;;;17.44;61.79
70976;BME280;58635;51.198;6.010;2023-08-08T05:02:59;101246.94;;;17.46;61.72
70976;BME280;58635;51.198;6.010;2023-08-08T05:05:26;101242.28;;;17.48;62.02
70976;BME280;58635;51.198;6.010;2023-08-08T05:07:52;101246.84;;;17.53;61.86
70976;BME280;58635;51.198;6.010;2023-08-08T05:10:19;101249.22;;;17.54;61.58
70976;BME280;58635;51.198;6.010;2023-08-08T05:12:45;101245.56;;;17.56;61.62
70976;BME280;58635;51.198;6.010;2023-08-08T05:15:11;101252.06;;;17.53;61.76
70976;BME280;58635;51.198;6.010;2023-08-08T05:17:38;101252.16;;;17.58;61.92
70976;BME280;58635;51.198;6.010;2023-08-08T05:20:05;101243.84;;;17.61;61.61
70976;BME280;58635;51.198;6.010;2023-08-08T05:22:32;101251.47;;;17.63;61.47
70976;BME280;58635;51.198;6.010;2023-08-08T05:24:58;101244.78;;;17.67;61.77
70976;BME280;58635;51.198;6.010;2023-08-08T05:27:25;101241.50;;;17.71;61.57
70976;BME280;58635;51.198;6.010;2023-08-08T05:29:51;101241.94;;;17.80;61.65
70976;BME280;58635;51.198;6.010;2023-08-08T05:32:17;101250.44;;;17.87;61.17
70976;BME280;58635;51.198;6.010;2023-08-08T05:34:44;101250.44;;;17.99;61.13
70976;BME280;58635;51.198;6.010;2023-08-08T05:37:10;101238.03;;;18.06;60.78
70976;BME280;58635;51.198;6.010;2023-08-08T05:39:36;101254.16;;;18.15;60.67
70976;BME280;58635;51.198;6.010;2023-08-08T05:42:03;101252.56;;;18.25;60.21
70976;BME280;58635;51.198;6.010;2023-08-08T05:44:29;101264.94;;;18.30;60.26
70976;BME280;58635;51.198;6.010;2023-08-08T05:46:56;101253.53;;;18.36;60.29
70976;BME280;58635;51.198;6.010;2023-08-08T05:49:22;101259.19;;;18.45;59.96
70976;BME280;58635;51.198;6.010;2023-08-08T05:51:48;101260.41;;;18.54;60.03
70976;BME280;58635;51.198;6.010;2023-08-08T05:54:15;101262.66;;;18.62;59.96
70976;BME280;58635;51.198;6.010;2023-08-08T05:56:41;101257.78;;;18.65;59.52
70976;BME280;58635;51.198;6.010;2023-08-08T05:59:07;101262.88;;;18.72;59.50
70976;BME280;58635;51.198;6.010;2023-08-08T06:01:34;101259.84;;;18.80;59.46
70976;BME280;58635;51.198;6.010;2023-08-08T06:04:00;101256.06;;;18.88;58.97
70976;BME280;58635;51.198;6.010;2023-08-08T06:06:27;101265.03;;;18.92;59.02
70976;BME280;58635;51.198;6.010;2023-08-08T06:08:53;101262.41;;;18.92;59.11
70976;BME280;58635;51.198;6.010;2023-08-08T06:11:20;101265.38;;;18.95;59.08
70976;BME280;58635;51.198;6.010;2023-08-08T06:13:48;101262.09;;;19.05;58.85
70976;BME280;58635;51.198;6.010;2023-08-08T06:16:15;101263.53;;;19.13;58.91
70976;BME280;58635;51.198;6.010;2023-08-08T06:18:42;101270.22;;;19.20;58.64
70976;BME280;58635;51.198;6.010;2023-08-08T06:21:08;101270.06;;;19.27;58.59
70976;BME280;58635;51.198;6.010;2023-08-08T06:23:34;101270.16;;;19.32;58.24
70976;BME280;58635;51.198;6.010;2023-08-08T06:26:01;101271.50;;;19.35;58.39
70976;BME280;58635;51.198;6.010;2023-08-08T06:28:27;101277.28;;;19.37;58.34
70976;BME280;58635;51.198;6.010;2023-08-08T06:30:53;101285.56;;;19.45;58.27
70976;BME280;58635;51.198;6.010;2023-08-08T06:33:20;101277.13;;;19.60;57.98
70976;BME280;58635;51.198;6.010;2023-08-08T06:35:46;101282.28;;;19.72;57.70
70976;BME280;58635;51.198;6.010;2023-08-08T06:38:13;101277.44;;;19.80;57.25
70976;BME280;58635;51.198;6.010;2023-08-08T06:40:39;101271.94;;;19.82;57.16
70976;BME280;58635;51.198;6.010;2023-08-08T06:43:05;101277.69;;;19.79;57.01
70976;BME280;58635;51.198;6.010;2023-08-08T06:45:32;101286.91;;;19.81;57.16
70976;BME280;58635;51.198;6.010;2023-08-08T06:47:58;101279.72;;;19.77;56.99
70976;BME280;58635;51.198;6.010;2023-08-08T06:50:25;101275.75;;;19.74;57.27
70976;BME280;58635;51.198;6.010;2023-08-08T06:52:51;101265.81;;;19.76;57.42
70976;BME280;58635;51.198;6.010;2023-08-08T06:55:17;101275.34;;;19.82;57.24
70976;BME280;58635;51.198;6.010;2023-08-08T06:57:44;101278.53;;;19.84;57.07
70976;BME280;58635;51.198;6.010;2023-08-08T07:00:11;101282.25;;;19.89;56.92
70976;BME280;58635;51.198;6.010;2023-08-08T07:02:39;101281.00;;;19.91;56.95
70976;BME280;58635;51.198;6.010;2023-08-08T07:05:06;101282.81;;;19.91;57.13
70976;BME280;58635;51.198;6.010;2023-08-08T07:07:33;101279.50;;;20.00;56.72
70976;BME280;58635;51.198;6.010;2023-08-08T07:10:03;101276.97;;;20.05;56.84
70976;BME280;58635;51.198;6.010;2023-08-08T07:12:30;101287.59;;;20.15;56.50
70976;BME280;58635;51.198;6.010;2023-08-08T07:14:56;101290.09;;;20.27;56.49
70976;BME280;58635;51.198;6.010;2023-08-08T07:17:22;101294.44;;;20.38;55.90
70976;BME280;58635;51.198;6.010;2023-08-08T07:19:49;101286.88;;;20.42;55.96
70976;BME280;58635;51.198;6.010;2023-08-08T07:22:15;101281.66;;;20.47;55.65
70976;BME280;58635;51.198;6.010;2023-08-08T07:24:42;101273.84;;;20.52;55.54
70976;BME280;58635;51.198;6.010;2023-08-08T07:27:08;101274.66;;;20.58;55.55
70976;BME280;58635;51.198;6.010;2023-08-08T07:29:34;101278.19;;;20.68;55.41
70976;BME280;58635;51.198;6.010;2023-08-08T07:32:03;101274.84;;;20.73;55.20
70976;BME280;58635;51.198;6.010;2023-08-08T07:34:30;101280.09;;;20.73;55.11
70976;BME280;58635;51.198;6.010;2023-08-08T07:36:58;101275.06;;;20.71;55.04
70976;BME280;58635;51.198;6.010;2023-08-08T07:39:25;101277.66;;;20.66;55.09
70976;BME280;58635;51.198;6.010;2023-08-08T07:41:52;101273.94;;;20.62;55.06
70976;BME280;58635;51.198;6.010;2023-08-08T07:44:19;101268.34;;;20.54;55.33
70976;BME280;58635;51.198;6.010;2023-08-08T07:46:45;101270.44;;;20.52;55.27
70976;BME280;58635;51.198;6.010;2023-08-08T07:49:13;101278.84;;;20.54;55.45
70976;BME280;58635;51.198;6.010;2023-08-08T07:51:39;101278.09;;;20.58;55.16
70976;BME280;58635;51.198;6.010;2023-08-08T07:54:06;101275.28;;;20.65;55.05
70976;BME280;58635;51.198;6.010;2023-08-08T07:56:35;101270.38;;;20.73;55.01
70976;BME280;58635;51.198;6.010;2023-08-08T07:59:02;101278.31;;;20.79;55.00
70976;BME280;58635;51.198;6.010;2023-08-08T08:01:28;101266.03;;;20.89;54.72
70976;BME280;58635;51.198;6.010;2023-08-08T08:03:55;101265.34;;;20.99;54.70
70976;BME280;58635;51.198;6.010;2023-08-08T08:06:22;101271.72;;;21.08;54.69
70976;BME280;58635;51.198;6.010;2023-08-08T08:08:48;101267.31;;;21.19;54.21
70976;BME280;58635;51.198;6.010;2023-08-08T08:11:15;101276.84;;;21.25;54.18
70976;BME280;58635;51.198;6.010;2023-08-08T08:13:42;101272.16;;;21.27;54.17
70976;BME280;58635;51.198;6.010;2023-08-08T08:16:09;101260.84;;;21.26;53.81
70976;BME280;58635;51.198;6.010;2023-08-08T08:18:35;101264.78;;;21.29;54.16
70976;BME280;58635;51.198;6.010;2023-08-08T08:21:02;101261.69;;;21.37;54.21
70976;BME280;58635;51.198;6.010;2023-08-08T08:23:28;101271.00;;;21.50;53.82
70976;BME280;58635;51.198;6.010;2023-08-08T08:25:54;101271.06;;;21.65;53.69
70976;BME280;58635;51.198;6.010;2023-08-08T08:28:21;101260.13;;;21.83;53.09
70976;BME280;58635;51.198;6.010;2023-08-08T08:30:48;101270.72;;;21.99;52.85
70976;BME280;58635;51.198;6.010;2023-08-08T08:33:15;101269.22;;;22.08;53.13
70976;BME280;58635;51.198;6.010;2023-08-08T08:35:42;101275.03;;;22.20;52.48
70976;BME280;58635;51.198;6.010;2023-08-08T08:38:08;101273.22;;;22.31;52.19
70976;BME280;58635;51.198;6.010;2023-08-08T08:40:37;101265.63;;;22.39;51.57
70976;BME280;58635;51.198;6.010;2023-08-08T08:43:04;101262.69;;;22.36;51.79
70976;BME280;58635;51.198;6.010;2023-08-08T08:45:30;101258.50;;;22.40;51.74
70976;BME280;58635;51.198;6.010;2023-08-08T08:47:59;101263.50;;;22.46;51.35
70976;BME280;58635;51.198;6.010;2023-08-08T08:50:27;101265.38;;;22.51;51.23
70976;BME280;58635;51.198;6.010;2023-08-08T08:52:55;101269.84;;;22.61;51.41
70976;BME280;58635;51.198;6.010;2023-08-08T08:55:22;101265.66;;;22.70;50.72
70976;BME280;58635;51.198;6.010;2023-08-08T08:57:50;101267.25;;;22.81;50.93
70976;BME280;58635;51.198;6.010;2023-08-08T09:00:16;101265.72;;;23.00;50.61
70976;BME280;58635;51.198;6.010;2023-08-08T09:02:43;101259.09;;;23.08;50.17
70976;BME280;58635;51.198;6.010;2023-08-08T09:05:11;101267.28;;;23.12;50.22
70976;BME280;58635;51.198;6.010;2023-08-08T09:07:38;101258.31;;;23.13;50.22
70976;BME280;58635;51.198;6.010;2023-08-08T09:10:05;101266.22;;;23.13;49.99
70976;BME280;58635;51.198;6.010;2023-08-08T09:12:33;101267.28;;;23.12;49.42
70976;BME280;58635;51.198;6.010;2023-08-08T09:15:01;101263.59;;;23.02;49.41
70976;BME280;58635;51.198;6.010;2023-08-08T09:17:30;101261.50;;;22.99;49.50
70976;BME280;58635;51.198;6.010;2023-08-08T09:19:57;101264.13;;;22.99;48.99
70976;BME280;58635;51.198;6.010;2023-08-08T09:22:24;101268.09;;;22.97;49.45
70976;BME280;58635;51.198;6.010;2023-08-08T09:24:52;101269.91;;;22.96;48.59
70976;BME280;58635;51.198;6.010;2023-08-08T09:27:19;101265.19;;;22.88;48.79
70976;BME280;58635;51.198;6.010;2023-08-08T09:29:45;101272.03;;;22.84;49.10
70976;BME280;58635;51.198;6.010;2023-08-08T09:32:12;101271.47;;;22.82;48.71
70976;BME280;58635;51.198;6.010;2023-08-08T09:34:42;101273.84;;;22.79;49.12
70976;BME280;58635;51.198;6.010;2023-08-08T09:37:09;101266.72;;;22.74;49.15
70976;BME280;58635;51.198;6.010;2023-08-08T09:39:36;101264.06;;;22.69;49.04
70976;BME280;58635;51.198;6.010;2023-08-08T09:42:03;101260.09;;;22.61;49.48
70976;BME280;58635;51.198;6.010;2023-08-08T09:44:30;101257.97;;;22.48;49.74
70976;BME280;58635;51.198;6.010;2023-08-08T09:46:59;101261.63;;;22.37;49.77
70976;BME280;58635;51.198;6.010;2023-08-08T09:49:25;101261.38;;;22.28;50.06
70976;BME280;58635;51.198;6.010;2023-08-08T09:51:52;101271.34;;;22.21;50.28
70976;BME280;58635;51.198;6.010;2023-08-08T09:54:19;101270.78;;;22.09;50.60
70976;BME280;58635;51.198;6.010;2023-08-08T09:56:48;101275.22;;;22.03;50.69
70976;BME280;58635;51.198;6.010;2023-08-08T09:59:16;101274.94;;;22.00;50.57
70976;BME280;58635;51.198;6.010;2023-08-08T10:01:44;101278.34;;;22.00;50.93
70976;BME280;58635;51.198;6.010;2023-08-08T10:04:12;101278.34;;;22.00;51.03
70976;BME280;58635;51.198;6.010;2023-08-08T10:06:39;101280.22;;;22.05;50.71
70976;BME280;58635;51.198;6.010;2023-08-08T10:09:05;101276.28;;;22.02;51.20
70976;BME280;58635;51.198;6.010;2023-08-08T10:11:33;101277.59;;;22.05;50.90
70976;BME280;58635;51.198;6.010;2023-08-08T10:14:02;101281.28;;;22.04;51.00
70976;BME280;58635;51.198;6.010;2023-08-08T10:16:33;101281.28;;;22.04;51.10
70976;BME280;58635;51.198;6.010;2023-08-08T10:19:01;101282.06;;;22.04;50.78
70976;BME280;58635;51.198;6.010;2023-08-08T10:21:32;101272.59;;;22.03;50.66
70976;BME280;58635;51.198;6.010;2023-08-08T10:24:07;101273.34;;;21.99;50.62
70976;BME280;58635;51.198;6.010;2023-08-08T10:26:54;101272.81;;;22.02;50.44
70976;BME280;58635;51.198;6.010;2023-08-08T10:29:25;101275.31;;;22.18;50.69
70976;BME280;58635;51.198;6.010;2023-08-08T10:31:53;101273.78;;;22.38;50.51
70976;BME280;58635;51.198;6.010;2023-08-08T10:34:20;101275.91;;;22.61;49.96
70976;BME280;58635;51.198;6.010;2023-08-08T10:36:50;101270.44;;;22.83;49.97
70976;BME280;58635;51.198;6.010;2023-08-08T10:39:18;101273.38;;;22.87;49.53
70976;BME280;58635;51.198;6.010;2023-08-08T10:41:49;101278.34;;;22.83;49.20
70976;BME280;58635;51.198;6.010;2023-08-08T10:44:23;101267.28;;;22.91;49.46
70976;BME280;58635;51.198;6.010;2023-08-08T10:46:51;101282.06;;;22.97;49.08
70976;BME280;58635;51.198;6.010;2023-08-08T10:49:18;101275.19;;;22.96;48.94
70976;BME280;58635;51.198;6.010;2023-08-08T10:51:46;101281.81;;;22.99;48.92
70976;BME280;58635;51.198;6.010;2023-08-08T10:54:19;101283.09;;;23.17;48.48
70976;BME280;58635;51.198;6.010;2023-08-08T10:56:52;101275.97;;;23.38;48.08
70976;BME280;58635;51.198;6.010;2023-08-08T10:59:22;101285.69;;;23.52;47.64
70976;BME280;58635;51.198;6.010;2023-08-08T11:01:51;101282.00;;;23.53;47.57
70976;BME280;58635;51.198;6.010;2023-08-08T11:04:24;101277.81;;;23.32;47.01
70976;BME280;58635;51.198;6.010;2023-08-08T11:06:53;101281.00;;;23.14;47.72
70976;BME280;58635;51.198;6.010;2023-08-08T11:09:20;101282.88;;;22.98;48.24
70976;BME280;58635;51.198;6.010;2023-08-08T11:11:46;101291.78;;;22.82;48.41
70976;BME280;58635;51.198;6.010;2023-08-08T11:14:20;101294.94;;;22.63;49.24
70976;BME280;58635;51.198;6.010;2023-08-08T11:16:49;101296.72;;;22.47;49.95
70976;BME280;58635;51.198;6.010;2023-08-08T11:19:16;101283.50;;;22.37;50.29
70976;BME280;58635;51.198;6.010;2023-08-08T11:21:44;101279.56;;;22.30;50.76
70976;BME280;58635;51.198;6.010;2023-08-08T11:24:12;101270.84;;;22.24;51.04
70976;BME280;58635;51.198;6.010;2023-08-08T11:26:40;101278.72;;;22.24;51.21
70976;BME280;58635;51.198;6.010;2023-08-08T11:29:07;101269.53;;;22.27;51.27
70976;BME280;58635;51.198;6.010;2023-08-08T11:31:37;101260.06;;;22.36;51.11
70976;BME280;58635;51.198;6.010;2023-08-08T11:34:04;101257.47;;;22.56;51.40
70976;BME280;58635;51.198;6.010;2023-08-08T11:36:32;101264.09;;;22.79;51.00
70976;BME280;58635;51.198;6.010;2023-08-08T11:39:03;101254.63;;;22.93;50.63
70976;BME280;58635;51.198;6.010;2023-08-08T11:41:37;101259.13;;;22.98;50.21
70976;BME280;58635;51.198;6.010;2023-08-08T11:44:04;101255.44;;;22.99;50.12
70976;BME280;58635;51.198;6.010;2023-08-08T11:46:31;101252.78;;;23.09;49.73
70976;BME280;58635;51.198;6.010;2023-08-08T11:49:04;101245.88;;;23.39;49.44
70976;BME280;58635;51.198;6.010;2023-08-08T11:51:33;101256.63;;;23.73;48.67
70976;BME280;58635;51.198;6.010;2023-08-08T11:54:01;101241.78;;;23.87;47.98
70976;BME280;58635;51.198;6.010;2023-08-08T11:56:28;101256.00;;;24.01;47.80
70976;BME280;58635;51.198;6.010;2023-08-08T11:58:55;101263.84;;;24.16;47.44
70976;BME280;58635;51.198;6.010;2023-08-08T12:01:26;101265.13;;;24.29;46.40
70976;BME280;58635;51.198;6.010;2023-08-08T12:03:53;101255.31;;;24.30;46.19
70976;BME280;58635;51.198;6.010;2023-08-08T12:06:20;101254.53;;;24.29;46.05
70976;BME280;58635;51.198;6.010;2023-08-08T12:08:47;101252.41;;;24.26;46.02
70976;BME280;58635;51.198;6.010;2023-08-08T12:11:15;101254.31;;;24.20;45.63
70976;BME280;58635;51.198;6.010;2023-08-08T12:13:43;101255.44;;;24.09;45.87
70976;BME280;58635;51.198;6.010;2023-08-08T12:16:11;101247.31;;;23.96;46.13
70976;BME280;58635;51.198;6.010;2023-08-08T12:18:38;101243.91;;;23.85;46.48
70976;BME280;58635;51.198;6.010;2023-08-08T12:21:05;101236.56;;;23.72;46.92
70976;BME280;58635;51.198;6.010;2023-08-08T12:23:33;101244.78;;;23.60;46.98
70976;BME280;58635;51.198;6.010;2023-08-08T12:26:02;101249.56;;;23.48;47.24
70976;BME280;58635;51.198;6.010;2023-08-08T12:28:29;101239.00;;;23.38;47.64
70976;BME280;58635;51.198;6.010;2023-08-08T12:30:55;101243.78;;;23.30;47.70
70976;BME280;58635;51.198;6.010;2023-08-08T12:33:21;101249.31;;;23.29;47.56
70976;BME280;58635;51.198;6.010;2023-08-08T12:35:48;101244.06;;;23.24;47.78
70976;BME280;58635;51.198;6.010;2023-08-08T12:38:15;101239.81;;;23.18;47.96
70976;BME280;58635;51.198;6.010;2023-08-08T12:40:42;101237.19;;;23.18;47.36
70976;BME280;58635;51.198;6.010;2023-08-08T12:43:10;101229.81;;;23.25;47.50
70976;BME280;58635;51.198;6.010;2023-08-08T12:45:44;101228.69;;;23.56;46.77
70976;BME280;58635;51.198;6.010;2023-08-08T12:48:12;101238.91;;;23.83;46.41
70976;BME280;58635;51.198;6.010;2023-08-08T12:50:38;101237.19;;;24.08;45.82
70976;BME280;58635;51.198;6.010;2023-08-08T12:53:05;101238.38;;;24.36;45.71